Time;durP1;ratioP1;P1;durP2;ratioP2;P2;SDS_P1;SDS_P2;PMS_P1;PMS_P2;Temp;Humidity;BMP_temperature;BMP_pressure;BME280_temperature;BME280_humidity;BME280_pressure;Samples;Min_cycle;Max_cycle;Signal;HPM_P1;HPM_P2
2023/07/27 00:02:51;;;;;;;;;;;13.80;99.90;;;;;;12517996;28;19954;-43
2023/07/27 00:08:56;;;;;;;;;;;13.80;99.90;;;;;;12510305;28;19921;-43
2023/07/27 00:14:59;;;;;;;;;;;13.80;99.90;;;;;;12517922;28;19925;-43
2023/07/27 00:21:02;;;;;;;;;;;13.80;99.90;;;;;;12523317;28;19925;-43
2023/07/27 00:27:04;;;;;;;;;;;13.80;99.90;;;;;;12512963;28;19972;-43
2023/07/27 00:33:07;;;;;;;;;;;13.80;99.90;;;;;;12496180;28;20444;-44
2023/07/27 00:39:11;;;;;;;;;;;13.80;99.90;;;;;;12499208;28;20392;-43
2023/07/27 00:45:13;;;;;;;;;;;13.90;99.90;;;;;;12518836;28;19928;-42
2023/07/27 00:51:16;;;;;;;;;;;14.00;99.90;;;;;;12513455;28;20293;-43
2023/07/27 00:57:19;;;;;;;;;;;14.00;99.90;;;;;;12515091;28;19920;-43
2023/07/27 01:03:22;;;;;;;;;;;14.00;99.90;;;;;;12518035;28;19932;-43
2023/07/27 01:09:25;;;;;;;;;;;14.00;99.90;;;;;;12519154;28;19988;-43
2023/07/27 01:15:30;;;;;;;;;;;14.00;99.90;;;;;;12510842;28;19966;-43
2023/07/27 01:21:36;;;;;;;;;;;14.00;99.90;;;;;;12512591;28;19936;-43
2023/07/27 01:27:38;;;;;;;;;;;13.90;99.90;;;;;;12522692;28;19921;-43
2023/07/27 01:33:41;;;;;;;;;;;13.90;99.90;;;;;;12499198;28;19960;-43
2023/07/27 01:39:47;;;;;;;;;;;13.80;99.90;;;;;;12519390;28;19927;-43
2023/07/27 01:45:50;;;;;;;;;;;13.80;99.90;;;;;;12522878;28;19928;-43
2023/07/27 01:51:53;;;;;;;;;;;13.80;99.90;;;;;;12520668;28;19928;-43
2023/07/27 01:57:59;;;;;;;;;;;13.80;99.90;;;;;;12530307;28;19981;-43
2023/07/27 02:04:05;;;;;;;;;;;13.80;99.90;;;;;;12501761;28;19921;-44
2023/07/27 02:10:08;;;;;;;;;;;13.80;99.90;;;;;;12528118;28;20357;-43
2023/07/27 02:16:10;;;;;;;;;;;13.90;99.90;;;;;;12502359;28;19924;-43
2023/07/27 02:22:14;;;;;;;;;;;13.90;99.90;;;;;;12515736;28;19921;-43
2023/07/27 02:28:16;;;;;;;;;;;13.90;99.90;;;;;;12512706;28;19921;-43
2023/07/27 02:34:19;;;;;;;;;;;13.90;99.90;;;;;;12502662;28;20362;-43
2023/07/27 02:40:22;;;;;;;;;;;14.00;99.90;;;;;;12513518;28;20318;-43
2023/07/27 02:46:24;;;;;;;;;;;14.00;99.90;;;;;;12514043;28;19943;-43
2023/07/27 02:52:26;;;;;;;;;;;14.00;99.90;;;;;;12525286;28;19925;-44
2023/07/27 02:58:29;;;;;;;;;;;14.00;99.90;;;;;;12516490;28;19931;-44
2023/07/27 03:04:32;;;;;;;;;;;14.10;99.90;;;;;;12527940;28;19929;-41
2023/07/27 03:10:36;;;;;;;;;;;14.10;99.90;;;;;;12527837;28;19921;-41
2023/07/27 03:16:38;;;;;;;;;;;14.10;99.90;;;;;;12504796;28;19974;-41
2023/07/27 03:22:40;;;;;;;;;;;14.10;99.90;;;;;;12501455;28;19921;-42
2023/07/27 03:28:42;;;;;;;;;;;14.10;99.90;;;;;;12523100;28;19924;-42
2023/07/27 03:34:46;;;;;;;;;;;14.20;99.90;;;;;;12509378;28;20684;-42
2023/07/27 03:40:50;;;;;;;;;;;14.20;99.90;;;;;;12497363;28;19921;-42
2023/07/27 03:46:53;;;;;;;;;;;14.30;99.90;;;;;;12510044;28;19933;-42
2023/07/27 03:52:56;;;;;;;;;;;14.30;99.90;;;;;;12508044;28;20380;-42
2023/07/27 03:58:59;;;;;;;;;;;14.30;99.90;;;;;;12501037;28;19961;-42
2023/07/27 04:05:00;;;;;;;;;;;14.40;99.90;;;;;;12519259;28;19932;-42
2023/07/27 04:11:02;;;;;;;;;;;14.40;99.90;;;;;;12531759;28;20026;-42
2023/07/27 04:17:05;;;;;;;;;;;14.50;99.90;;;;;;12520743;28;19920;-42
2023/07/27 04:23:08;;;;;;;;;;;14.40;99.90;;;;;;12494721;28;20386;-42
2023/07/27 04:29:11;;;;;;;;;;;14.40;99.90;;;;;;12499415;28;19955;-42
2023/07/27 04:35:13;;;;;;;;;;;14.50;99.90;;;;;;12510827;28;19977;-42
2023/07/27 04:41:16;;;;;;;;;;;14.50;99.90;;;;;;12505245;28;20213;-42
2023/07/27 04:47:19;;;;;;;;;;;14.50;99.90;;;;;;12523844;28;19932;-42
2023/07/27 04:53:22;;;;;;;;;;;14.60;99.90;;;;;;12502975;28;19925;-42
2023/07/27 04:59:25;;;;;;;;;;;14.70;99.90;;;;;;12533178;28;19920;-42
2023/07/27 05:05:28;;;;;;;;;;;14.70;99.90;;;;;;12507481;28;20032;-42
2023/07/27 05:11:31;;;;;;;;;;;14.70;99.90;;;;;;12499643;28;20012;-42
2023/07/27 05:17:33;;;;;;;;;;;14.70;99.90;;;;;;12514504;28;20293;-41
2023/07/27 05:23:36;;;;;;;;;;;14.70;99.90;;;;;;12504881;28;19925;-42
2023/07/27 05:29:38;;;;;;;;;;;14.60;99.90;;;;;;12498871;28;19943;-42
2023/07/27 05:35:40;;;;;;;;;;;14.60;99.90;;;;;;12514344;28;20012;-42
2023/07/27 05:41:43;;;;;;;;;;;14.60;99.90;;;;;;12528440;28;19932;-42
2023/07/27 05:47:46;;;;;;;;;;;14.60;99.90;;;;;;12514741;28;19920;-42
2023/07/27 05:53:48;;;;;;;;;;;14.60;99.90;;;;;;12503868;28;19921;-42
2023/07/27 05:59:50;;;;;;;;;;;14.60;99.90;;;;;;12518368;28;19967;-42
2023/07/27 06:06:08;;;;;;;;;;;14.60;99.90;;;;;;12533081;28;19921;-42
2023/07/27 06:12:14;;;;;;;;;;;14.50;99.90;;;;;;12507166;28;19928;-42
2023/07/27 06:18:17;;;;;;;;;;;14.40;99.90;;;;;;12521108;28;20060;-43
2023/07/27 06:24:24;;;;;;;;;;;14.40;99.90;;;;;;12493474;28;20004;-43
2023/07/27 06:30:29;;;;;;;;;;;14.30;99.90;;;;;;12528952;28;19920;-42
2023/07/27 06:36:32;;;;;;;;;;;14.30;99.90;;;;;;12504417;28;19928;-42
2023/07/27 06:42:37;;;;;;;;;;;14.30;99.90;;;;;;12526259;28;19925;-42
2023/07/27 06:48:41;;;;;;;;;;;14.30;99.90;;;;;;12540349;28;19928;-42
2023/07/27 06:54:49;;;;;;;;;;;14.30;99.90;;;;;;12532359;28;20380;-42
2023/07/27 07:00:57;;;;;;;;;;;14.30;99.90;;;;;;12525079;28;19925;-42
2023/07/27 07:06:59;;;;;;;;;;;14.30;99.90;;;;;;12526631;28;20046;-42
2023/07/27 07:13:03;;;;;;;;;;;14.30;99.90;;;;;;12524163;28;19921;-42
2023/07/27 07:19:05;;;;;;;;;;;14.30;99.90;;;;;;12520099;28;20341;-42
2023/07/27 07:25:08;;;;;;;;;;;14.40;99.90;;;;;;12520223;28;19928;-42
2023/07/27 07:31:11;;;;;;;;;;;14.40;99.90;;;;;;12510942;28;20400;-42
2023/07/27 07:37:15;;;;;;;;;;;14.60;99.90;;;;;;12493699;28;19921;-42
2023/07/27 07:43:17;;;;;;;;;;;14.60;99.90;;;;;;12500116;28;19967;-42
2023/07/27 07:49:20;;;;;;;;;;;14.60;99.90;;;;;;12519332;28;20274;-42
2023/07/27 07:55:23;;;;;;;;;;;14.70;99.90;;;;;;12508474;28;20458;-42
2023/07/27 08:01:26;;;;;;;;;;;14.70;99.90;;;;;;12534455;28;19921;-43
2023/07/27 08:07:28;;;;;;;;;;;14.70;99.90;;;;;;12512794;28;19925;-42
2023/07/27 08:13:31;;;;;;;;;;;14.70;99.90;;;;;;12511475;28;19925;-42
2023/07/27 08:19:34;;;;;;;;;;;14.70;99.90;;;;;;12524279;28;20429;-43
2023/07/27 08:25:39;;;;;;;;;;;14.50;99.90;;;;;;12501617;28;19971;-42
2023/07/27 08:31:43;;;;;;;;;;;14.50;99.90;;;;;;12505465;28;19927;-42
2023/07/27 08:37:46;;;;;;;;;;;14.30;99.90;;;;;;12507069;28;19921;-42
2023/07/27 08:43:51;;;;;;;;;;;14.40;99.90;;;;;;12499329;28;19924;-43
2023/07/27 08:49:55;;;;;;;;;;;14.40;99.90;;;;;;12502932;28;20334;-42
2023/07/27 08:55:58;;;;;;;;;;;14.50;99.90;;;;;;12502970;28;20015;-42
2023/07/27 09:02:01;;;;;;;;;;;14.50;99.90;;;;;;12507938;28;19921;-42
2023/07/27 09:08:07;;;;;;;;;;;14.50;99.90;;;;;;12499081;28;20268;-42
2023/07/27 09:14:10;;;;;;;;;;;14.50;99.90;;;;;;12519360;28;20353;-42
2023/07/27 09:20:14;;;;;;;;;;;14.40;99.90;;;;;;12516368;28;20015;-42
2023/07/27 09:26:23;;;;;;;;;;;14.40;99.90;;;;;;12493841;28;19921;-43
2023/07/27 09:32:33;;;;;;;;;;;14.40;99.90;;;;;;12506800;28;19921;-43
2023/07/27 09:38:36;;;;;;;;;;;14.40;99.90;;;;;;12476723;28;20019;-42
2023/07/27 09:44:49;;;;;;;;;;;14.40;99.90;;;;;;12516152;28;19928;-41
2023/07/27 09:50:52;;;;;;;;;;;14.50;99.90;;;;;;12495473;28;20384;-42
2023/07/27 09:56:56;;;;;;;;;;;14.60;99.90;;;;;;12511829;28;19974;-43
2023/07/27 10:02:59;;;;;;;;;;;14.70;99.90;;;;;;12524664;28;20011;-43
2023/07/27 10:09:22;;;;;;;;;;;14.70;99.90;;;;;;12516201;28;19921;-42
2023/07/27 10:15:26;;;;;;;;;;;14.80;99.90;;;;;;12523149;28;19974;-42
2023/07/27 10:21:29;;;;;;;;;;;14.80;99.90;;;;;;12525886;28;20339;-42
2023/07/27 10:27:52;;;;;;;;;;;15.00;99.90;;;;;;12506306;28;19921;-42
2023/07/27 10:34:13;;;;;;;;;;;15.20;99.90;;;;;;12489066;28;19974;-42
2023/07/27 10:40:29;;;;;;;;;;;15.10;99.90;;;;;;12492310;28;19925;-42
2023/07/27 10:46:44;;;;;;;;;;;15.00;99.90;;;;;;12517029;28;19925;-42
2023/07/27 10:52:51;;;;;;;;;;;15.10;99.90;;;;;;12508408;28;20289;-42
2023/07/27 10:58:59;;;;;;;;;;;15.10;99.90;;;;;;12515619;28;19921;-42
2023/07/27 11:05:08;;;;;;;;;;;15.30;99.90;;;;;;12511161;28;20296;-42
2023/07/27 11:11:18;;;;;;;;;;;15.40;99.90;;;;;;12515767;28;20404;-42
2023/07/27 11:17:22;;;;;;;;;;;15.50;99.90;;;;;;12513564;28;19969;-42
2023/07/27 11:23:26;;;;;;;;;;;15.60;99.90;;;;;;12511303;28;19921;-42
2023/07/27 11:29:29;;;;;;;;;;;15.80;99.90;;;;;;12498614;28;19931;-43
2023/07/27 11:35:31;;;;;;;;;;;16.00;99.90;;;;;;12511184;28;19962;-42
2023/07/27 11:41:36;;;;;;;;;;;15.90;99.90;;;;;;12524647;28;20308;-41
2023/07/27 11:47:51;;;;;;;;;;;16.00;99.90;;;;;;12519967;28;20289;-43
2023/07/27 11:53:53;;;;;;;;;;;16.10;99.90;;;;;;12507796;28;20388;-43
2023/07/27 12:00:13;;;;;;;;;;;16.20;99.90;;;;;;12528351;28;19974;-43
2023/07/27 12:06:16;;;;;;;;;;;16.30;99.90;;;;;;12488486;28;19932;-43
2023/07/27 12:12:19;;;;;;;;;;;16.30;99.90;;;;;;12497886;28;20290;-42
2023/07/27 12:18:41;;;;;;;;;;;16.30;99.90;;;;;;12502916;28;19924;-42
2023/07/27 12:24:47;;;;;;;;;;;16.40;99.90;;;;;;12496379;28;19983;-43
2023/07/27 12:30:49;;;;;;;;;;;16.30;99.90;;;;;;12512501;28;19932;-43
2023/07/27 12:37:12;;;;;;;;;;;16.40;99.90;;;;;;12510415;28;20024;-43
2023/07/27 12:43:18;;;;;;;;;;;16.50;99.90;;;;;;12495986;28;19928;-43
2023/07/27 12:49:21;;;;;;;;;;;16.60;99.90;;;;;;12522248;28;20423;-43
2023/07/27 12:55:24;;;;;;;;;;;16.50;99.90;;;;;;12514510;28;19932;-42
2023/07/27 13:01:27;;;;;;;;;;;16.50;99.90;;;;;;12515751;28;19984;-43
2023/07/27 13:07:29;;;;;;;;;;;16.50;99.90;;;;;;12507948;28;19929;-42
2023/07/27 13:13:31;;;;;;;;;;;16.60;99.90;;;;;;12503054;28;19967;-43
2023/07/27 13:19:34;;;;;;;;;;;16.60;99.90;;;;;;12519354;28;19931;-43
2023/07/27 13:25:37;;;;;;;;;;;16.70;99.90;;;;;;12493613;28;19970;-43
2023/07/27 13:31:39;;;;;;;;;;;16.70;99.90;;;;;;12513200;28;20313;-43
2023/07/27 13:37:41;;;;;;;;;;;16.80;99.90;;;;;;12496110;28;19944;-43
2023/07/27 13:43:44;;;;;;;;;;;17.00;99.90;;;;;;12498086;28;19951;-43
2023/07/27 13:49:47;;;;;;;;;;;17.10;99.90;;;;;;12516093;28;19920;-43
2023/07/27 13:55:52;;;;;;;;;;;17.30;99.90;;;;;;12494854;28;19925;-43
2023/07/27 14:01:56;;;;;;;;;;;17.50;99.90;;;;;;12504222;28;19924;-43
2023/07/27 14:07:58;;;;;;;;;;;17.50;99.90;;;;;;12491055;28;20348;-43
2023/07/27 14:14:01;;;;;;;;;;;17.40;99.90;;;;;;12514155;28;19921;-43
2023/07/27 14:20:04;;;;;;;;;;;17.40;99.90;;;;;;12514477;28;20353;-43
2023/07/27 14:26:07;;;;;;;;;;;17.40;99.90;;;;;;12477830;28;19924;-43
2023/07/27 14:32:14;;;;;;;;;;;17.40;99.90;;;;;;12514197;28;20377;-43
2023/07/27 14:38:17;;;;;;;;;;;17.30;99.90;;;;;;12510694;28;19979;-43
2023/07/27 14:44:19;;;;;;;;;;;17.40;99.90;;;;;;12505752;28;20320;-43
2023/07/27 14:50:27;;;;;;;;;;;17.30;99.90;;;;;;12511458;28;19925;-43
2023/07/27 14:56:32;;;;;;;;;;;17.30;99.90;;;;;;12514974;28;19921;-43
2023/07/27 15:02:35;;;;;;;;;;;17.40;99.90;;;;;;12534049;28;20011;-43
2023/07/27 15:08:47;;;;;;;;;;;17.40;99.90;;;;;;12502701;28;19978;-43
2023/07/27 15:14:50;;;;;;;;;;;17.40;99.90;;;;;;12522664;28;20012;-43
2023/07/27 15:20:56;;;;;;;;;;;17.50;99.90;;;;;;12519194;28;19921;-43
2023/07/27 15:26:58;;;;;;;;;;;17.50;99.90;;;;;;12503312;28;19968;-43
2023/07/27 15:33:05;;;;;;;;;;;17.50;99.90;;;;;;12511670;28;20971;-43
2023/07/27 15:39:08;;;;;;;;;;;17.70;99.90;;;;;;12530309;28;19921;-43
2023/07/27 15:45:10;;;;;;;;;;;17.70;99.90;;;;;;12514681;28;19925;-43
2023/07/27 15:51:14;;;;;;;;;;;17.60;99.90;;;;;;12498674;28;19986;-43
2023/07/27 15:57:22;;;;;;;;;;;17.70;99.90;;;;;;12508838;28;20007;-43
2023/07/27 16:03:26;;;;;;;;;;;17.60;99.90;;;;;;12515792;28;19920;-43
2023/07/27 16:09:29;;;;;;;;;;;17.60;99.90;;;;;;12503359;28;20490;-43
2023/07/27 16:15:31;;;;;;;;;;;17.70;99.90;;;;;;12520155;28;20270;-42
2023/07/27 16:21:37;;;;;;;;;;;17.70;99.90;;;;;;12517418;28;19920;-43
2023/07/27 16:27:43;;;;;;;;;;;17.80;99.90;;;;;;12496452;28;19921;-43
2023/07/27 16:33:45;;;;;;;;;;;17.70;99.90;;;;;;12509531;28;19970;-43
2023/07/27 16:39:48;;;;;;;;;;;17.70;99.90;;;;;;12511058;28;20494;-43
2023/07/27 16:45:51;;;;;;;;;;;17.70;99.90;;;;;;12509484;28;19921;-43
2023/07/27 16:51:56;;;;;;;;;;;17.70;99.90;;;;;;12519280;28;19920;-43
2023/07/27 16:58:02;;;;;;;;;;;17.70;99.90;;;;;;12509320;28;19967;-43
2023/07/27 17:04:05;;;;;;;;;;;17.60;99.90;;;;;;12534384;28;19925;-43
2023/07/27 17:10:08;;;;;;;;;;;17.60;99.90;;;;;;12522722;28;19924;-43
2023/07/27 17:16:14;;;;;;;;;;;17.60;99.90;;;;;;12513475;28;20383;-43
2023/07/27 17:22:17;;;;;;;;;;;17.50;99.90;;;;;;12514789;28;19921;-43
2023/07/27 17:28:20;;;;;;;;;;;17.50;99.90;;;;;;12491053;28;19939;-43
2023/07/27 17:34:26;;;;;;;;;;;17.50;99.90;;;;;;12529908;28;20011;-43
2023/07/27 17:40:33;;;;;;;;;;;17.50;99.90;;;;;;12516248;28;20247;-43
2023/07/27 17:46:35;;;;;;;;;;;17.60;99.90;;;;;;12530184;28;20232;-43
2023/07/27 17:52:40;;;;;;;;;;;17.50;99.90;;;;;;12512508;28;20734;-43
2023/07/27 17:58:43;;;;;;;;;;;17.50;99.90;;;;;;12518774;28;19925;-43
2023/07/27 18:04:46;;;;;;;;;;;17.50;99.90;;;;;;12514634;28;20259;-43
2023/07/27 18:10:49;;;;;;;;;;;17.40;99.90;;;;;;12512023;28;19920;-43
2023/07/27 18:16:52;;;;;;;;;;;17.40;99.90;;;;;;12521993;28;19921;-43
2023/07/27 18:22:54;;;;;;;;;;;17.40;99.90;;;;;;12517426;28;19925;-43
2023/07/27 18:28:57;;;;;;;;;;;17.40;99.90;;;;;;12520626;28;20281;-43
2023/07/27 18:35:00;;;;;;;;;;;17.30;99.90;;;;;;12525513;28;19920;-43
2023/07/27 18:41:03;;;;;;;;;;;17.40;99.90;;;;;;12506212;28;19928;-43
2023/07/27 18:47:05;;;;;;;;;;;17.30;99.90;;;;;;12501344;28;19975;-43
2023/07/27 18:53:08;;;;;;;;;;;17.30;99.90;;;;;;12518838;28;20192;-43
2023/07/27 18:59:10;;;;;;;;;;;17.30;99.90;;;;;;12520476;28;20251;-43
2023/07/27 19:05:13;;;;;;;;;;;17.30;99.90;;;;;;12511774;28;19921;-43
2023/07/27 19:11:15;;;;;;;;;;;17.30;99.90;;;;;;12521924;28;20439;-43
2023/07/27 19:17:18;;;;;;;;;;;17.30;99.90;;;;;;12527480;28;19925;-43
2023/07/27 19:23:20;;;;;;;;;;;17.20;99.90;;;;;;12501299;28;20403;-43
2023/07/27 19:29:23;;;;;;;;;;;17.20;99.90;;;;;;12495941;28;19921;-43
2023/07/27 19:35:25;;;;;;;;;;;17.20;99.90;;;;;;12516909;28;19928;-43
2023/07/27 19:41:27;;;;;;;;;;;17.10;99.90;;;;;;12501825;28;20308;-43
2023/07/27 19:47:31;;;;;;;;;;;17.10;99.90;;;;;;12531896;28;20394;-42
2023/07/27 19:53:34;;;;;;;;;;;17.10;99.90;;;;;;12503536;28;19932;-43
2023/07/27 19:59:37;;;;;;;;;;;17.10;99.90;;;;;;12522696;28;19921;-43
2023/07/27 20:05:39;;;;;;;;;;;17.10;99.90;;;;;;12489842;28;19951;-43
2023/07/27 20:11:41;;;;;;;;;;;17.00;99.90;;;;;;12503185;28;19920;-43
2023/07/27 20:17:43;;;;;;;;;;;17.00;99.90;;;;;;12504836;28;19925;-43
2023/07/27 20:23:46;;;;;;;;;;;17.00;99.90;;;;;;12495512;28;20006;-43
2023/07/27 20:29:49;;;;;;;;;;;16.90;99.90;;;;;;12495827;28;19929;-43
2023/07/27 20:35:55;;;;;;;;;;;17.00;99.90;;;;;;12500089;28;20028;-43
2023/07/27 20:41:58;;;;;;;;;;;17.00;99.90;;;;;;12509731;28;19929;-43
2023/07/27 20:48:01;;;;;;;;;;;17.00;99.90;;;;;;12503880;28;20402;-43
2023/07/27 20:54:04;;;;;;;;;;;16.90;99.90;;;;;;12491113;28;20297;-43
2023/07/27 21:00:07;;;;;;;;;;;16.90;99.90;;;;;;12501087;28;19928;-43
2023/07/27 21:06:09;;;;;;;;;;;16.90;99.90;;;;;;12486236;28;19924;-43
2023/07/27 21:12:17;;;;;;;;;;;17.00;99.90;;;;;;12508564;28;19921;-43
2023/07/27 21:18:19;;;;;;;;;;;16.90;99.90;;;;;;12504428;28;19987;-43
2023/07/27 21:24:22;;;;;;;;;;;16.90;99.90;;;;;;12500948;28;19921;-43
2023/07/27 21:30:26;;;;;;;;;;;16.90;99.90;;;;;;12499770;28;19921;-43
2023/07/27 21:36:30;;;;;;;;;;;16.90;99.90;;;;;;12511881;28;19935;-42
2023/07/27 21:42:33;;;;;;;;;;;16.90;99.90;;;;;;12488645;28;19925;-43
2023/07/27 21:48:35;;;;;;;;;;;16.90;99.90;;;;;;12520528;28;20221;-43
2023/07/27 21:54:38;;;;;;;;;;;16.90;99.90;;;;;;12493992;28;19921;-43
2023/07/27 22:00:41;;;;;;;;;;;16.90;99.90;;;;;;12528559;28;19952;-43
2023/07/27 22:06:44;;;;;;;;;;;16.90;99.90;;;;;;12500312;28;19925;-43
2023/07/27 22:12:46;;;;;;;;;;;16.80;99.90;;;;;;12497068;28;19932;-42
2023/07/27 22:18:49;;;;;;;;;;;16.90;99.90;;;;;;12504465;28;19939;-43
2023/07/27 22:24:51;;;;;;;;;;;16.90;99.90;;;;;;12514974;28;19932;-43
2023/07/27 22:30:53;;;;;;;;;;;16.90;99.90;;;;;;12504093;28;20411;-42
2023/07/27 22:36:56;;;;;;;;;;;16.80;99.90;;;;;;12496044;28;20011;-43
2023/07/27 22:42:59;;;;;;;;;;;16.90;99.90;;;;;;12516704;28;20478;-43
2023/07/27 22:49:02;;;;;;;;;;;16.80;99.90;;;;;;12514918;28;19965;-43
2023/07/27 22:55:04;;;;;;;;;;;16.80;99.90;;;;;;12514090;28;19920;-43
2023/07/27 23:01:13;;;;;;;;;;;16.80;99.90;;;;;;12526299;28;19990;-42
2023/07/27 23:07:16;;;;;;;;;;;16.80;99.90;;;;;;12512218;28;19925;-42
2023/07/27 23:13:19;;;;;;;;;;;16.80;99.90;;;;;;12517584;28;20269;-43
2023/07/27 23:19:21;;;;;;;;;;;16.80;99.90;;;;;;12519519;28;20324;-43
2023/07/27 23:25:23;;;;;;;;;;;16.90;99.90;;;;;;12518848;28;19927;-43
2023/07/27 23:31:25;;;;;;;;;;;16.90;99.90;;;;;;12519478;28;20289;-43
2023/07/27 23:37:28;;;;;;;;;;;16.90;99.90;;;;;;12526587;28;19928;-43
2023/07/27 23:43:30;;;;;;;;;;;16.90;99.90;;;;;;12519845;28;19932;-43
2023/07/27 23:49:32;;;;;;;;;;;16.90;99.90;;;;;;12502017;28;20278;-43
2023/07/27 23:55:35;;;;;;;;;;;17.00;99.90;;;;;;12527625;28;20062;-43
